createdAt,value
2022-08-26T00:00:12.840Z,18.64
2022-08-26T00:00:43.382Z,18.62
2022-08-26T00:01:13.966Z,18.62
2022-08-26T00:01:45.039Z,18.60
2022-08-26T00:02:15.381Z,18.57
2022-08-26T00:02:46.139Z,18.57
2022-08-26T00:03:16.754Z,18.57
2022-08-26T00:03:47.406Z,18.54
2022-08-26T00:04:18.097Z,18.53
2022-08-26T00:04:48.748Z,18.53
2022-08-26T00:05:19.729Z,18.50
2022-08-26T00:05:50.252Z,18.49
2022-08-26T00:06:21.032Z,18.50
2022-08-26T00:06:51.614Z,18.47
2022-08-26T00:07:22.193Z,18.47
2022-08-26T00:07:52.746Z,18.47
2022-08-26T00:08:23.301Z,18.44
2022-08-26T00:08:53.854Z,18.44
2022-08-26T00:09:24.616Z,18.42
2022-08-26T00:09:55.395Z,18.42
2022-08-26T00:10:25.862Z,18.42
2022-08-26T00:10:56.484Z,18.39
2022-08-26T00:11:27.313Z,18.38
2022-08-26T00:11:57.843Z,18.39
2022-08-26T00:12:35.960Z,18.38
2022-08-26T00:12:59.169Z,18.38
2022-08-26T00:13:29.735Z,18.36
2022-08-26T00:14:00.288Z,18.36
2022-08-26T00:14:31.656Z,18.36
2022-08-26T00:15:01.727Z,18.38
2022-08-26T00:15:32.306Z,18.36
2022-08-26T00:16:02.856Z,18.36
2022-08-26T00:16:33.474Z,18.35
2022-08-26T00:17:04.050Z,18.35
2022-08-26T00:17:34.570Z,18.35
2022-08-26T00:18:05.113Z,18.34
2022-08-26T00:18:38.789Z,18.32
2022-08-26T00:19:06.675Z,18.32
2022-08-26T00:19:37.569Z,18.34
2022-08-26T00:20:08.342Z,18.32
2022-08-26T00:20:39.121Z,18.31
2022-08-26T00:21:10.114Z,18.28
2022-08-26T00:21:40.873Z,18.28
2022-08-26T00:22:11.494Z,18.28
2022-08-26T00:22:42.059Z,18.28
2022-08-26T00:23:12.618Z,18.28
2022-08-26T00:23:43.293Z,18.26
2022-08-26T00:24:13.861Z,18.28
2022-08-26T00:24:47.828Z,18.26
2022-08-26T00:25:15.053Z,18.26
2022-08-26T00:25:45.775Z,18.25
2022-08-26T00:26:16.593Z,18.25
2022-08-26T00:26:47.176Z,18.25
2022-08-26T00:27:17.740Z,18.25
2022-08-26T00:27:48.298Z,18.21
2022-08-26T00:28:19.071Z,18.20
2022-08-26T00:28:49.501Z,18.19
2022-08-26T00:29:21.361Z,18.19
2022-08-26T00:29:51.282Z,18.19
2022-08-26T00:30:22.739Z,18.17
2022-08-26T00:30:52.562Z,18.16
2022-08-26T00:31:23.172Z,18.16
2022-08-26T00:31:53.993Z,18.14
2022-08-26T00:32:24.788Z,18.13
2022-08-26T00:32:55.615Z,18.14
2022-08-26T00:33:26.521Z,18.13
2022-08-26T00:33:57.556Z,18.13
2022-08-26T00:34:28.147Z,18.11
2022-08-26T00:34:58.707Z,18.10
2022-08-26T00:35:29.264Z,18.09
2022-08-26T00:36:00.032Z,18.07
2022-08-26T00:36:31.048Z,18.05
2022-08-26T00:37:01.595Z,18.04
2022-08-26T00:37:32.157Z,18.02
2022-08-26T00:38:02.750Z,18.05
2022-08-26T00:38:33.384Z,18.04
2022-08-26T00:39:03.933Z,18.02
2022-08-26T00:39:34.510Z,18.02
2022-08-26T00:40:05.460Z,18.02
2022-08-26T00:40:36.067Z,18.02
2022-08-26T00:41:06.646Z,18.01
2022-08-26T00:41:37.221Z,18.02
2022-08-26T00:42:07.762Z,18.02
2022-08-26T00:42:38.311Z,18.01
2022-08-26T00:43:09.479Z,17.98
2022-08-26T00:43:47.204Z,18.01
2022-08-26T00:44:10.502Z,17.99
2022-08-26T00:44:41.067Z,17.99
2022-08-26T00:45:12.066Z,17.98
2022-08-26T00:45:42.621Z,17.98
2022-08-26T00:46:13.329Z,17.99
2022-08-26T00:46:46.750Z,17.98
2022-08-26T00:47:14.564Z,17.98
2022-08-26T00:47:45.119Z,17.96
2022-08-26T00:48:15.911Z,17.96
2022-08-26T00:48:46.671Z,17.98
2022-08-26T00:49:17.224Z,17.98
2022-08-26T00:49:48.113Z,17.99
2022-08-26T00:50:18.737Z,17.99
2022-08-26T00:50:50.427Z,17.99
2022-08-26T00:51:20.485Z,17.99
2022-08-26T00:51:51.059Z,17.99
2022-08-26T00:52:21.680Z,17.98
2022-08-26T00:52:52.395Z,17.99
2022-08-26T00:53:24.093Z,17.99
2022-08-26T00:53:53.797Z,17.98
2022-08-26T00:54:27.050Z,17.98
2022-08-26T00:54:55.189Z,17.98
2022-08-26T00:55:25.710Z,17.96
2022-08-26T00:55:56.500Z,17.98
2022-08-26T00:56:27.197Z,17.96
2022-08-26T00:56:57.778Z,17.96
2022-08-26T00:57:28.415Z,17.96
2022-08-26T00:57:59.007Z,17.95
2022-08-26T00:58:29.540Z,17.95
2022-08-26T00:59:00.114Z,17.95
2022-08-26T00:59:32.774Z,17.94
2022-08-26T01:00:01.517Z,17.94
2022-08-26T01:00:32.072Z,17.94
2022-08-26T01:01:02.716Z,17.95
2022-08-26T01:01:33.355Z,17.94
2022-08-26T01:02:03.982Z,17.92
2022-08-26T01:02:34.651Z,17.91
2022-08-26T01:03:05.519Z,17.91
2022-08-26T01:03:36.067Z,17.91
2022-08-26T01:04:06.623Z,17.89
2022-08-26T01:04:37.216Z,17.89
2022-08-26T01:05:07.740Z,17.89
2022-08-26T01:05:38.270Z,17.89
2022-08-26T01:06:12.358Z,17.89
2022-08-26T01:06:39.963Z,17.89
2022-08-26T01:07:10.628Z,17.87
2022-08-26T01:07:41.169Z,17.87
2022-08-26T01:08:11.693Z,17.87
2022-08-26T01:08:42.556Z,17.86
2022-08-26T01:09:13.385Z,17.89
2022-08-26T01:09:43.946Z,17.89
2022-08-26T01:10:14.853Z,17.87
2022-08-26T01:10:45.838Z,17.86
2022-08-26T01:11:16.458Z,17.86
2022-08-26T01:11:46.987Z,17.86
2022-08-26T01:12:17.551Z,17.84
2022-08-26T01:12:48.082Z,17.84
2022-08-26T01:13:19.018Z,17.84
2022-08-26T01:13:49.662Z,17.86
2022-08-26T01:14:20.291Z,17.86
2022-08-26T01:14:51.228Z,17.83
2022-08-26T01:15:21.814Z,17.84
2022-08-26T01:15:52.403Z,17.83
2022-08-26T01:16:23.366Z,17.81
2022-08-26T01:16:53.933Z,17.81
2022-08-26T01:17:24.516Z,17.81
2022-08-26T01:17:55.063Z,17.80
2022-08-26T01:18:25.642Z,17.79
2022-08-26T01:18:56.220Z,17.80
2022-08-26T01:19:27.168Z,17.79
2022-08-26T01:19:57.693Z,17.79
2022-08-26T01:20:28.402Z,17.79
2022-08-26T01:20:58.936Z,17.77
2022-08-26T01:21:29.558Z,17.77
2022-08-26T01:22:00.121Z,17.80
2022-08-26T01:22:30.686Z,17.77
2022-08-26T01:23:03.116Z,17.77
2022-08-26T01:23:32.034Z,17.77
2022-08-26T01:24:02.757Z,17.77
2022-08-26T01:24:33.331Z,17.76
2022-08-26T01:25:03.934Z,17.74
2022-08-26T01:25:34.472Z,17.74
2022-08-26T01:26:05.309Z,17.74
2022-08-26T01:26:35.803Z,17.74
2022-08-26T01:27:06.352Z,17.74
2022-08-26T01:27:37.365Z,17.74
2022-08-26T01:28:07.901Z,17.73
2022-08-26T01:28:38.428Z,17.73
2022-08-26T01:29:09.170Z,17.74
2022-08-26T01:29:39.692Z,17.73
2022-08-26T01:30:10.240Z,17.73
2022-08-26T01:30:40.839Z,17.71
2022-08-26T01:31:11.449Z,17.71
2022-08-26T01:31:42.146Z,17.70
2022-08-26T01:32:12.740Z,17.68
2022-08-26T01:32:43.331Z,17.68
2022-08-26T01:33:13.902Z,17.70
2022-08-26T01:33:44.479Z,17.66
2022-08-26T01:34:15.395Z,17.66
2022-08-26T01:34:45.918Z,17.66
2022-08-26T01:35:16.455Z,17.66
2022-08-26T01:35:47.240Z,17.65
2022-08-26T01:36:17.794Z,17.65
2022-08-26T01:36:51.603Z,17.65
2022-08-26T01:37:19.148Z,17.63
2022-08-26T01:37:49.797Z,17.65
2022-08-26T01:38:20.374Z,17.65
2022-08-26T01:38:51.165Z,17.63
2022-08-26T01:39:21.696Z,17.63
2022-08-26T01:39:52.304Z,17.63
2022-08-26T01:40:22.978Z,17.63
2022-08-26T01:40:53.647Z,17.62
2022-08-26T01:41:27.410Z,17.62
2022-08-26T01:41:54.871Z,17.60
2022-08-26T01:42:25.437Z,17.60
2022-08-26T01:42:55.973Z,17.62
2022-08-26T01:43:26.535Z,17.60
2022-08-26T01:43:57.900Z,17.60
2022-08-26T01:44:28.068Z,17.58
2022-08-26T01:44:58.657Z,17.58
2022-08-26T01:45:29.254Z,17.55
2022-08-26T01:46:00.149Z,17.55
2022-08-26T01:46:30.809Z,17.55
2022-08-26T01:47:01.394Z,17.55
2022-08-26T01:47:32.393Z,17.55
2022-08-26T01:48:03.127Z,17.54
2022-08-26T01:48:34.067Z,17.54
2022-08-26T01:49:04.612Z,17.54
2022-08-26T01:49:35.561Z,17.54
2022-08-26T01:50:06.237Z,17.54
2022-08-26T01:50:36.791Z,17.54
2022-08-26T01:51:07.380Z,17.53
2022-08-26T01:51:37.947Z,17.54
2022-08-26T01:52:08.522Z,17.54
2022-08-26T01:52:39.259Z,17.51
2022-08-26T01:53:10.681Z,17.53
2022-08-26T01:53:41.756Z,17.49
2022-08-26T01:54:11.920Z,17.51
2022-08-26T01:54:42.153Z,17.49
2022-08-26T01:55:12.840Z,17.51
2022-08-26T01:55:43.561Z,17.49
2022-08-26T01:56:14.086Z,17.47
2022-08-26T01:56:44.607Z,17.49
2022-08-26T01:57:15.143Z,17.49
2022-08-26T01:57:45.690Z,17.47
2022-08-26T01:58:16.230Z,17.47
2022-08-26T01:58:46.784Z,17.46
2022-08-26T01:59:17.513Z,17.45
2022-08-26T01:59:48.088Z,17.45
2022-08-26T02:00:18.657Z,17.43
2022-08-26T02:00:49.285Z,17.45
2022-08-26T02:01:20.058Z,17.45
2022-08-26T02:01:50.649Z,17.46
2022-08-26T02:02:21.221Z,17.45
2022-08-26T02:02:51.777Z,17.45
2022-08-26T02:03:22.377Z,17.43
2022-08-26T02:03:52.925Z,17.43
2022-08-26T02:04:23.579Z,17.42
2022-08-26T02:04:54.548Z,17.42
2022-08-26T02:05:25.164Z,17.42
2022-08-26T02:05:55.738Z,17.40
2022-08-26T02:06:26.278Z,17.40
2022-08-26T02:06:56.870Z,17.40
2022-08-26T02:07:27.423Z,17.40
2022-08-26T02:07:57.987Z,17.40
2022-08-26T02:08:28.541Z,17.39
2022-08-26T02:08:59.095Z,17.40
2022-08-26T02:09:29.661Z,17.40
2022-08-26T02:10:00.308Z,17.38
2022-08-26T02:10:30.827Z,17.38
2022-08-26T02:11:01.365Z,17.38
2022-08-26T02:11:31.900Z,17.38
2022-08-26T02:12:02.604Z,17.36
2022-08-26T02:12:33.230Z,17.35
2022-08-26T02:13:03.991Z,17.35
2022-08-26T02:13:34.544Z,17.33
2022-08-26T02:14:05.100Z,17.36
2022-08-26T02:14:35.621Z,17.33
2022-08-26T02:15:06.404Z,17.33
2022-08-26T02:15:36.981Z,17.33
2022-08-26T02:16:08.423Z,17.32
2022-08-26T02:16:38.682Z,17.32
2022-08-26T02:17:09.218Z,17.28
2022-08-26T02:17:39.773Z,17.30
2022-08-26T02:18:14.146Z,17.30
2022-08-26T02:18:41.121Z,17.27
2022-08-26T02:19:17.039Z,17.28
2022-08-26T02:19:42.653Z,17.27
2022-08-26T02:20:14.921Z,17.27
2022-08-26T02:20:43.803Z,17.27
2022-08-26T02:21:14.537Z,17.27
2022-08-26T02:21:45.214Z,17.25
2022-08-26T02:22:16.151Z,17.22
2022-08-26T02:22:46.692Z,17.22
2022-08-26T02:23:17.288Z,17.20
2022-08-26T02:23:48.212Z,17.21
2022-08-26T02:24:18.775Z,17.20
2022-08-26T02:24:49.377Z,17.21
2022-08-26T02:25:19.984Z,17.21
2022-08-26T02:25:50.521Z,17.21
2022-08-26T02:26:21.217Z,17.22
2022-08-26T02:26:51.779Z,17.21
2022-08-26T02:27:22.499Z,17.21
2022-08-26T02:27:53.420Z,17.20
2022-08-26T02:28:26.797Z,17.20
2022-08-26T02:28:54.827Z,17.20
2022-08-26T02:29:25.382Z,17.20
2022-08-26T02:29:55.911Z,17.20
2022-08-26T02:30:26.463Z,17.20
2022-08-26T02:30:57.069Z,17.20
2022-08-26T02:31:27.707Z,17.21
2022-08-26T02:31:58.367Z,17.21
2022-08-26T02:32:28.929Z,17.20
2022-08-26T02:32:59.532Z,17.21
2022-08-26T02:33:30.101Z,17.21
2022-08-26T02:34:00.972Z,17.18
2022-08-26T02:34:31.562Z,17.18
2022-08-26T02:35:02.407Z,17.17
2022-08-26T02:35:33.122Z,17.20
2022-08-26T02:36:03.685Z,17.18
2022-08-26T02:36:34.371Z,17.17
2022-08-26T02:37:05.142Z,17.18
2022-08-26T02:37:35.798Z,17.18
2022-08-26T02:38:10.266Z,17.17
2022-08-26T02:38:37.091Z,17.20
2022-08-26T02:39:07.747Z,17.18
2022-08-26T02:39:38.330Z,17.18
2022-08-26T02:40:08.941Z,17.20
2022-08-26T02:40:39.486Z,17.20
2022-08-26T02:41:10.024Z,17.20
2022-08-26T02:41:45.182Z,17.20
2022-08-26T02:42:11.762Z,17.20
2022-08-26T02:42:42.310Z,17.17
2022-08-26T02:43:13.031Z,17.18
2022-08-26T02:43:43.597Z,17.17
2022-08-26T02:44:14.445Z,17.18
2022-08-26T02:44:45.000Z,17.15
2022-08-26T02:45:16.725Z,17.17
2022-08-26T02:45:46.362Z,17.18
2022-08-26T02:46:27.947Z,17.17
2022-08-26T02:46:47.837Z,17.17
2022-08-26T02:47:18.437Z,17.18
2022-08-26T02:47:48.957Z,17.17
2022-08-26T02:48:19.858Z,17.17
2022-08-26T02:48:50.432Z,17.15
2022-08-26T02:49:21.042Z,17.12
2022-08-26T02:49:51.753Z,17.10
2022-08-26T02:50:22.278Z,17.10
2022-08-26T02:50:52.848Z,17.09
2022-08-26T02:51:23.373Z,17.09
2022-08-26T02:51:54.129Z,17.07
2022-08-26T02:52:24.904Z,17.09
2022-08-26T02:52:55.486Z,17.07
2022-08-26T02:53:26.031Z,17.06
2022-08-26T02:53:56.578Z,17.06
2022-08-26T02:54:27.123Z,17.07
2022-08-26T02:54:57.668Z,17.05
2022-08-26T02:55:28.219Z,17.06
2022-08-26T02:55:58.807Z,17.05
2022-08-26T02:56:29.329Z,17.05
2022-08-26T02:56:59.901Z,17.05
2022-08-26T02:57:30.614Z,17.05
2022-08-26T02:58:01.159Z,17.03
2022-08-26T02:58:31.730Z,17.05
2022-08-26T02:59:02.309Z,17.06
2022-08-26T02:59:32.870Z,17.03
2022-08-26T03:00:03.487Z,17.05
2022-08-26T03:00:34.076Z,17.03
2022-08-26T03:01:04.881Z,17.03
2022-08-26T03:01:35.410Z,17.02
2022-08-26T03:02:06.092Z,17.02
2022-08-26T03:02:36.663Z,17.00
2022-08-26T03:03:07.471Z,17.00
2022-08-26T03:03:38.080Z,17.00
2022-08-26T03:04:08.708Z,17.00
2022-08-26T03:04:39.692Z,16.99
2022-08-26T03:05:10.231Z,16.99
2022-08-26T03:05:40.818Z,16.99
2022-08-26T03:06:11.793Z,16.98
2022-08-26T03:06:42.320Z,16.98
2022-08-26T03:07:12.880Z,16.98
2022-08-26T03:07:43.425Z,16.99
2022-08-26T03:08:13.950Z,16.98
2022-08-26T03:08:44.537Z,16.98
2022-08-26T03:09:18.648Z,16.99
2022-08-26T03:09:45.857Z,16.99
2022-08-26T03:10:16.416Z,16.99
2022-08-26T03:10:46.985Z,17.00
2022-08-26T03:11:17.670Z,16.99
2022-08-26T03:11:48.244Z,17.00
2022-08-26T03:12:19.186Z,16.98
2022-08-26T03:12:49.738Z,16.98
2022-08-26T03:13:20.631Z,16.96
2022-08-26T03:13:51.199Z,16.98
2022-08-26T03:14:21.751Z,16.98
2022-08-26T03:14:52.660Z,16.98
2022-08-26T03:15:23.225Z,16.98
2022-08-26T03:15:53.822Z,16.99
2022-08-26T03:16:24.522Z,16.98
2022-08-26T03:16:55.195Z,16.96
2022-08-26T03:17:26.915Z,16.96
2022-08-26T03:17:57.174Z,16.99
2022-08-26T03:18:27.708Z,16.98
2022-08-26T03:18:58.239Z,16.98
2022-08-26T03:19:29.214Z,16.98
2022-08-26T03:20:00.162Z,16.98
2022-08-26T03:20:30.721Z,16.96
2022-08-26T03:21:01.259Z,16.99
2022-08-26T03:21:31.820Z,16.98
2022-08-26T03:22:02.623Z,16.98
2022-08-26T03:22:33.176Z,16.98
2022-08-26T03:23:03.725Z,16.98
2022-08-26T03:23:34.407Z,16.96
2022-08-26T03:24:04.939Z,16.96
2022-08-26T03:24:35.527Z,16.96
2022-08-26T03:25:06.095Z,16.98
2022-08-26T03:25:36.647Z,16.95
2022-08-26T03:26:07.237Z,16.96
2022-08-26T03:26:37.814Z,16.95
2022-08-26T03:27:08.409Z,16.96
2022-08-26T03:27:38.963Z,16.96
2022-08-26T03:28:09.808Z,16.98
2022-08-26T03:28:40.339Z,16.98
2022-08-26T03:29:11.019Z,16.98
2022-08-26T03:29:41.548Z,16.96
2022-08-26T03:30:12.100Z,16.96
2022-08-26T03:30:44.980Z,16.96
2022-08-26T03:31:13.619Z,16.95
2022-08-26T03:31:44.260Z,16.88
2022-08-26T03:32:15.054Z,16.90
2022-08-26T03:32:45.596Z,16.87
2022-08-26T03:33:16.209Z,16.88
2022-08-26T03:33:46.801Z,16.87
2022-08-26T03:34:17.442Z,16.88
2022-08-26T03:34:48.314Z,16.87
2022-08-26T03:35:18.877Z,16.88
2022-08-26T03:35:50.591Z,16.88
2022-08-26T03:36:20.344Z,16.88
2022-08-26T03:36:50.923Z,16.90
2022-08-26T03:37:21.490Z,16.88
2022-08-26T03:37:52.035Z,16.90
2022-08-26T03:38:22.607Z,16.91
2022-08-26T03:38:53.167Z,16.91
2022-08-26T03:39:23.719Z,16.91
2022-08-26T03:39:54.516Z,16.92
2022-08-26T03:40:25.298Z,16.92
2022-08-26T03:40:55.982Z,16.92
2022-08-26T03:41:26.584Z,16.95
2022-08-26T03:41:57.518Z,16.95
2022-08-26T03:42:28.053Z,16.95
2022-08-26T03:42:58.584Z,16.95
2022-08-26T03:43:29.249Z,16.95
2022-08-26T03:44:01.897Z,16.95
2022-08-26T03:44:30.458Z,16.95
2022-08-26T03:45:01.032Z,16.95
2022-08-26T03:45:31.564Z,16.96
2022-08-26T03:46:02.145Z,16.96
2022-08-26T03:46:32.810Z,16.95
2022-08-26T03:47:03.510Z,16.92
2022-08-26T03:47:34.395Z,16.92
2022-08-26T03:48:04.981Z,16.92
2022-08-26T03:48:35.528Z,16.92
2022-08-26T03:49:06.054Z,16.95
2022-08-26T03:49:36.996Z,16.95
2022-08-26T03:50:07.571Z,16.92
2022-08-26T03:50:38.128Z,16.96
2022-08-26T03:51:08.693Z,16.95
2022-08-26T03:51:39.427Z,16.92
2022-08-26T03:52:10.030Z,16.95
2022-08-26T03:52:43.724Z,16.95
2022-08-26T03:53:12.857Z,16.96
2022-08-26T03:53:42.357Z,16.95
2022-08-26T03:54:12.952Z,16.95
2022-08-26T03:54:43.576Z,16.95
2022-08-26T03:55:14.099Z,16.95
2022-08-26T03:55:44.656Z,16.96
2022-08-26T03:56:15.357Z,16.98
2022-08-26T03:56:46.586Z,16.96
2022-08-26T03:57:16.850Z,16.96
2022-08-26T03:57:47.345Z,16.96
2022-08-26T03:58:18.220Z,16.92
2022-08-26T03:58:48.726Z,16.96
2022-08-26T03:59:19.372Z,16.95
2022-08-26T03:59:50.390Z,16.95
2022-08-26T04:00:21.246Z,16.92
2022-08-26T04:00:55.645Z,16.95
2022-08-26T04:01:22.684Z,16.96
2022-08-26T04:01:53.322Z,16.95
2022-08-26T04:02:24.393Z,16.96
2022-08-26T04:02:55.155Z,16.92
2022-08-26T04:03:25.642Z,16.92
2022-08-26T04:03:56.672Z,16.95
2022-08-26T04:04:27.720Z,16.95
2022-08-26T04:04:58.271Z,16.95
2022-08-26T04:05:28.790Z,16.95
2022-08-26T04:05:59.375Z,16.95
2022-08-26T04:06:30.413Z,16.95
2022-08-26T04:07:01.434Z,16.95
2022-08-26T04:07:32.458Z,16.96
2022-08-26T04:08:03.153Z,16.95
2022-08-26T04:08:34.196Z,16.96
2022-08-26T04:09:05.203Z,16.92
2022-08-26T04:09:35.719Z,16.91
2022-08-26T04:10:06.739Z,16.92
2022-08-26T04:10:37.773Z,16.91
2022-08-26T04:11:08.298Z,16.92
2022-08-26T04:11:39.092Z,16.92
2022-08-26T04:12:10.013Z,16.92
2022-08-26T04:12:40.536Z,16.95
2022-08-26T04:13:11.567Z,16.92
2022-08-26T04:13:42.329Z,16.95
2022-08-26T04:14:13.365Z,16.95
2022-08-26T04:14:44.015Z,16.90
2022-08-26T04:15:15.047Z,16.91
2022-08-26T04:15:45.619Z,16.88
2022-08-26T04:16:16.500Z,16.92
2022-08-26T04:16:47.060Z,16.91
2022-08-26T04:17:18.072Z,16.90
2022-08-26T04:17:49.083Z,16.90
2022-08-26T04:18:19.751Z,16.90
2022-08-26T04:18:50.272Z,16.88
2022-08-26T04:19:20.793Z,16.88
2022-08-26T04:19:51.594Z,16.87
2022-08-26T04:20:22.594Z,16.88
2022-08-26T04:20:53.635Z,16.87
2022-08-26T04:21:24.636Z,16.87
2022-08-26T04:21:55.261Z,16.87
2022-08-26T04:22:26.260Z,16.85
2022-08-26T04:22:57.266Z,16.85
2022-08-26T04:23:27.809Z,16.87
2022-08-26T04:23:58.442Z,16.84
2022-08-26T04:24:28.928Z,16.84
2022-08-26T04:24:59.472Z,16.82
2022-08-26T04:25:29.985Z,16.82
2022-08-26T04:26:00.972Z,16.81
2022-08-26T04:26:31.973Z,16.81
2022-08-26T04:27:02.506Z,16.82
2022-08-26T04:27:33.524Z,16.82
2022-08-26T04:28:04.043Z,16.81
2022-08-26T04:28:34.586Z,16.82
2022-08-26T04:29:05.193Z,16.82
2022-08-26T04:29:35.821Z,16.82
2022-08-26T04:30:06.369Z,16.84
2022-08-26T04:30:37.263Z,16.81
2022-08-26T04:31:08.306Z,16.81
2022-08-26T04:31:38.919Z,16.81
2022-08-26T04:32:09.646Z,16.80
2022-08-26T04:32:40.440Z,16.81
2022-08-26T04:33:12.754Z,16.80
2022-08-26T04:33:42.128Z,16.81
2022-08-26T04:34:14.115Z,16.81
2022-08-26T04:34:43.697Z,16.82
2022-08-26T04:35:14.442Z,16.82
2022-08-26T04:35:45.441Z,16.82
2022-08-26T04:36:16.255Z,16.81
2022-08-26T04:36:47.067Z,16.80
2022-08-26T04:37:17.625Z,16.80
2022-08-26T04:37:48.136Z,16.78
2022-08-26T04:38:19.174Z,16.80
2022-08-26T04:38:50.177Z,16.80
2022-08-26T04:39:20.932Z,16.80
2022-08-26T04:39:51.963Z,16.77
2022-08-26T04:40:22.524Z,16.78
2022-08-26T04:40:53.031Z,16.78
2022-08-26T04:41:23.829Z,16.75
2022-08-26T04:41:54.807Z,16.78
2022-08-26T04:42:26.282Z,16.78
2022-08-26T04:42:56.463Z,16.78
2022-08-26T04:43:27.495Z,16.75
2022-08-26T04:43:58.287Z,16.75
2022-08-26T04:44:29.298Z,16.75
2022-08-26T04:45:00.337Z,16.78
2022-08-26T04:45:31.366Z,16.77
2022-08-26T04:46:01.968Z,16.78
2022-08-26T04:46:32.606Z,16.75
2022-08-26T04:47:03.276Z,16.78
2022-08-26T04:47:34.283Z,16.77
2022-08-26T04:48:05.074Z,16.75
2022-08-26T04:48:36.093Z,16.77
2022-08-26T04:49:07.096Z,16.78
2022-08-26T04:49:38.113Z,16.78
2022-08-26T04:50:08.630Z,16.78
2022-08-26T04:50:39.378Z,16.77
2022-08-26T04:51:10.345Z,16.78
2022-08-26T04:51:41.355Z,16.77
2022-08-26T04:52:12.350Z,16.80
2022-08-26T04:52:43.081Z,16.78
2022-08-26T04:53:14.137Z,16.78
2022-08-26T04:53:44.668Z,16.77
2022-08-26T04:54:16.283Z,16.78
2022-08-26T04:54:46.409Z,16.80
2022-08-26T04:55:16.938Z,16.81
2022-08-26T04:55:48.391Z,16.82
2022-08-26T04:56:18.625Z,16.81
2022-08-26T04:56:49.100Z,16.81
2022-08-26T04:57:19.632Z,16.81
2022-08-26T04:57:50.223Z,16.80
2022-08-26T04:58:20.803Z,16.81
2022-08-26T04:58:51.822Z,16.81
2022-08-26T04:59:22.858Z,16.81
2022-08-26T04:59:53.514Z,16.81
2022-08-26T05:00:24.566Z,16.80
2022-08-26T05:00:55.234Z,16.82
2022-08-26T05:01:26.301Z,16.82
2022-08-26T05:01:56.864Z,16.81
2022-08-26T05:02:27.430Z,16.84
2022-08-26T05:02:58.443Z,16.84
2022-08-26T05:03:30.430Z,16.84
2022-08-26T05:04:00.133Z,16.85
2022-08-26T05:04:30.886Z,16.87
2022-08-26T05:05:01.409Z,16.88
2022-08-26T05:05:31.898Z,16.88
2022-08-26T05:06:02.641Z,16.90
2022-08-26T05:06:35.521Z,16.90
2022-08-26T05:07:04.052Z,16.91
2022-08-26T05:07:34.575Z,16.91
2022-08-26T05:08:05.588Z,16.91
2022-08-26T05:08:36.220Z,16.92
2022-08-26T05:09:07.234Z,16.92
2022-08-26T05:09:38.251Z,16.92
2022-08-26T05:10:08.994Z,16.95
2022-08-26T05:10:39.759Z,16.96
2022-08-26T05:11:10.488Z,16.96
2022-08-26T05:11:41.514Z,16.98
2022-08-26T05:12:12.506Z,16.99
2022-08-26T05:12:43.547Z,16.98
2022-08-26T05:13:15.705Z,16.98
2022-08-26T05:13:45.283Z,16.99
2022-08-26T05:14:16.286Z,16.99
2022-08-26T05:14:47.283Z,16.98
2022-08-26T05:15:17.807Z,16.99
2022-08-26T05:15:48.890Z,17.00
2022-08-26T05:16:19.491Z,17.02
2022-08-26T05:16:50.237Z,16.99
2022-08-26T05:17:21.263Z,17.00
2022-08-26T05:17:52.296Z,17.00
2022-08-26T05:18:23.308Z,17.00
2022-08-26T05:18:54.286Z,17.00
2022-08-26T05:19:25.319Z,17.00
2022-08-26T05:19:56.283Z,17.00
2022-08-26T05:20:26.863Z,17.02
2022-08-26T05:20:57.882Z,17.02
2022-08-26T05:21:28.900Z,17.03
2022-08-26T05:21:59.926Z,17.06
2022-08-26T05:22:30.439Z,17.07
2022-08-26T05:23:01.558Z,17.05
2022-08-26T05:23:32.097Z,17.09
2022-08-26T05:24:03.103Z,17.09
2022-08-26T05:24:33.737Z,17.12
2022-08-26T05:25:04.262Z,17.14
2022-08-26T05:25:35.300Z,17.14
2022-08-26T05:26:06.315Z,17.17
2022-08-26T05:26:37.311Z,17.18
2022-08-26T05:27:11.719Z,17.18
2022-08-26T05:27:38.802Z,17.18
2022-08-26T05:28:09.712Z,17.20
2022-08-26T05:28:40.231Z,17.21
2022-08-26T05:29:11.246Z,17.22
2022-08-26T05:29:42.241Z,17.22
2022-08-26T05:30:13.244Z,17.25
2022-08-26T05:30:44.285Z,17.27
2022-08-26T05:31:14.947Z,17.27
2022-08-26T05:31:45.412Z,17.30
2022-08-26T05:32:16.410Z,17.30
2022-08-26T05:32:47.417Z,17.35
2022-08-26T05:33:18.454Z,17.33
2022-08-26T05:33:49.447Z,17.35
2022-08-26T05:34:20.474Z,17.35
2022-08-26T05:34:51.505Z,17.33
2022-08-26T05:35:22.232Z,17.36
2022-08-26T05:35:52.789Z,17.36
2022-08-26T05:36:23.805Z,17.38
2022-08-26T05:36:54.374Z,17.36
2022-08-26T05:37:25.129Z,17.36
2022-08-26T05:37:55.649Z,17.36
2022-08-26T05:38:30.324Z,17.39
2022-08-26T05:38:57.394Z,17.38
2022-08-26T05:39:28.420Z,17.39
2022-08-26T05:39:59.090Z,17.39
2022-08-26T05:40:29.754Z,17.42
2022-08-26T05:41:00.352Z,17.42
2022-08-26T05:41:34.465Z,17.40
2022-08-26T05:42:02.070Z,17.42
2022-08-26T05:42:32.790Z,17.42
2022-08-26T05:43:03.301Z,17.40
2022-08-26T05:43:34.112Z,17.42
2022-08-26T05:44:04.941Z,17.43
2022-08-26T05:44:55.481Z,17.42
2022-08-26T05:45:06.659Z,17.43
2022-08-26T05:45:37.211Z,17.45
2022-08-26T05:46:08.323Z,17.45
2022-08-26T05:46:38.939Z,17.45
2022-08-26T05:47:09.472Z,17.43
2022-08-26T05:47:40.473Z,17.47
2022-08-26T05:48:11.499Z,17.47
2022-08-26T05:48:44.388Z,17.47
2022-08-26T05:49:13.457Z,17.49
2022-08-26T05:49:51.349Z,17.53
2022-08-26T05:50:14.704Z,17.57
2022-08-26T05:50:45.267Z,17.62
2022-08-26T05:51:15.784Z,17.62
2022-08-26T05:51:47.777Z,17.62
2022-08-26T05:52:16.929Z,17.60
2022-08-26T05:52:47.562Z,17.62
2022-08-26T05:53:18.086Z,17.62
2022-08-26T05:53:54.478Z,17.62
2022-08-26T05:54:22.003Z,17.60
2022-08-26T05:54:50.365Z,17.60
2022-08-26T05:55:21.372Z,17.58
2022-08-26T05:55:51.894Z,17.58
2022-08-26T05:56:22.414Z,17.58
2022-08-26T05:56:53.430Z,17.60
2022-08-26T05:57:24.444Z,17.60
2022-08-26T05:57:54.942Z,17.62
2022-08-26T05:58:26.733Z,17.65
2022-08-26T05:58:56.277Z,17.66
2022-08-26T05:59:26.855Z,17.65
2022-08-26T05:59:57.707Z,17.65
2022-08-26T06:00:28.703Z,17.66
2022-08-26T06:00:59.704Z,17.66
2022-08-26T06:01:30.776Z,17.66
2022-08-26T06:02:01.484Z,17.66
2022-08-26T06:02:32.041Z,17.68
2022-08-26T06:03:02.777Z,17.70
2022-08-26T06:03:33.345Z,17.70
2022-08-26T06:04:04.079Z,17.70
2022-08-26T06:04:34.608Z,17.71
2022-08-26T06:05:05.164Z,17.71
2022-08-26T06:05:39.160Z,17.73
2022-08-26T06:06:06.834Z,17.74
2022-08-26T06:06:37.409Z,17.73
2022-08-26T06:07:12.177Z,17.74
2022-08-26T06:07:38.881Z,17.76
2022-08-26T06:08:09.488Z,17.77
2022-08-26T06:08:40.403Z,17.79
2022-08-26T06:09:11.509Z,17.81
2022-08-26T06:09:41.997Z,17.80
2022-08-26T06:10:31.702Z,17.80
2022-08-26T06:10:43.718Z,17.81
2022-08-26T06:11:18.594Z,17.81
2022-08-26T06:11:45.653Z,17.83
2022-08-26T06:12:16.667Z,17.84
2022-08-26T06:12:47.475Z,17.84
2022-08-26T06:13:18.507Z,17.86
2022-08-26T06:13:49.500Z,17.89
2022-08-26T06:14:20.549Z,17.87
2022-08-26T06:14:51.072Z,17.91
2022-08-26T06:15:21.589Z,17.91
2022-08-26T06:15:52.664Z,17.94
2022-08-26T06:16:23.280Z,17.94
2022-08-26T06:16:53.994Z,17.92
2022-08-26T06:17:24.528Z,17.92
2022-08-26T06:17:55.503Z,17.95
2022-08-26T06:18:26.523Z,17.96
2022-08-26T06:18:57.319Z,17.98
2022-08-26T06:19:33.027Z,17.99
2022-08-26T06:19:59.072Z,18.01
2022-08-26T06:20:29.602Z,17.99
2022-08-26T06:21:00.118Z,18.01
2022-08-26T06:21:31.111Z,18.02
2022-08-26T06:22:02.126Z,18.02
2022-08-26T06:22:33.136Z,18.04
2022-08-26T06:23:03.832Z,18.05
2022-08-26T06:23:34.403Z,18.09
2022-08-26T06:24:04.925Z,18.09
2022-08-26T06:24:35.951Z,18.10
2022-08-26T06:25:06.728Z,18.10
2022-08-26T06:25:37.484Z,18.10
2022-08-26T06:26:08.477Z,18.13
2022-08-26T06:26:39.471Z,18.13
2022-08-26T06:27:11.345Z,18.13
2022-08-26T06:27:40.937Z,18.14
2022-08-26T06:28:11.971Z,18.14
2022-08-26T06:28:43.600Z,18.14
2022-08-26T06:29:16.392Z,18.17
2022-08-26T06:29:44.204Z,18.19
2022-08-26T06:30:14.992Z,18.19
2022-08-26T06:30:45.729Z,18.21
2022-08-26T06:31:16.290Z,18.21
2022-08-26T06:31:46.809Z,18.26
2022-08-26T06:32:17.404Z,18.29
2022-08-26T06:32:48.398Z,18.29
2022-08-26T06:33:19.428Z,18.31
2022-08-26T06:33:50.469Z,18.28
2022-08-26T06:34:21.462Z,18.28
2022-08-26T06:34:52.477Z,18.29
2022-08-26T06:35:23.398Z,18.32